createdAt,value
2023-02-15T02:30:53.529Z,17.48
2023-02-15T02:31:53.505Z,17.47
2023-02-15T02:32:53.389Z,17.54
2023-02-15T02:33:53.356Z,17.54
2023-02-15T02:34:53.331Z,17.51
2023-02-15T02:35:53.304Z,17.54
2023-02-15T02:36:53.285Z,17.53
2023-02-15T02:37:53.263Z,17.59
2023-02-15T02:38:53.223Z,17.54
2023-02-15T02:39:53.203Z,17.57
2023-02-15T02:40:53.165Z,17.57
2023-02-15T02:41:53.143Z,17.59
2023-02-15T02:42:53.127Z,17.62
2023-02-15T02:43:53.095Z,17.65
2023-02-15T02:44:53.097Z,17.60
2023-02-15T02:45:53.062Z,17.62
2023-02-15T02:46:53.061Z,17.66
2023-02-15T02:47:53.007Z,17.65
2023-02-15T02:48:52.975Z,17.62
2023-02-15T02:49:52.961Z,17.65
2023-02-15T02:50:52.936Z,17.66
2023-02-15T02:51:52.905Z,17.74
2023-02-15T02:52:52.878Z,17.71
2023-02-15T02:53:52.848Z,17.70
2023-02-15T02:54:52.825Z,17.75
2023-02-15T02:55:52.831Z,17.68
2023-02-15T02:56:52.769Z,17.69
2023-02-15T02:57:52.745Z,17.74
2023-02-15T02:58:52.742Z,17.75
2023-02-15T02:59:52.714Z,17.73
2023-02-15T03:00:52.682Z,17.75
2023-02-15T03:01:52.716Z,17.75
2023-02-15T03:02:52.729Z,17.78
2023-02-15T03:03:52.615Z,17.74
2023-02-15T03:04:52.581Z,17.72
2023-02-15T03:05:52.571Z,17.77
2023-02-15T03:06:52.547Z,17.75
2023-02-15T03:07:52.523Z,17.81
2023-02-15T03:08:52.492Z,17.84
2023-02-15T03:09:52.479Z,17.78
2023-02-15T03:10:52.448Z,17.83
2023-02-15T03:11:52.430Z,17.81
2023-02-15T03:12:52.397Z,17.83
2023-02-15T03:13:52.386Z,17.80
2023-02-15T03:14:52.363Z,17.81
2023-02-15T03:15:52.347Z,17.81
2023-02-15T03:16:52.311Z,17.86
2023-02-15T03:17:52.300Z,17.83
2023-02-15T03:18:52.265Z,17.90
2023-02-15T03:19:52.240Z,17.84
2023-02-15T03:20:52.228Z,17.87
2023-02-15T03:21:52.205Z,17.83
2023-02-15T03:22:52.209Z,17.87
2023-02-15T03:23:52.165Z,17.83
2023-02-15T03:24:52.122Z,17.87
2023-02-15T03:25:52.111Z,17.89
2023-02-15T03:26:52.075Z,17.90
2023-02-15T03:27:52.049Z,17.86
2023-02-15T03:28:52.029Z,17.88
2023-02-15T03:29:52.016Z,17.86
2023-02-15T03:30:52.007Z,17.89
2023-02-15T03:31:52.118Z,17.92
2023-02-15T03:32:51.914Z,17.90
2023-02-15T03:33:51.904Z,17.90
2023-02-15T03:34:51.860Z,17.90
2023-02-15T03:35:51.836Z,17.92
2023-02-15T03:36:51.806Z,17.92
2023-02-15T03:37:51.788Z,17.86
2023-02-15T03:38:51.754Z,17.92
2023-02-15T03:39:51.731Z,17.94
2023-02-15T03:40:51.676Z,17.97
2023-02-15T03:41:51.660Z,17.94
2023-02-15T03:42:51.624Z,17.95
2023-02-15T03:43:51.601Z,17.94
2023-02-15T03:44:51.569Z,17.95
2023-02-15T03:45:51.553Z,17.97
2023-02-15T03:46:53.538Z,17.92
2023-02-15T03:47:51.496Z,17.98
2023-02-15T03:48:51.456Z,17.90
2023-02-15T03:49:51.433Z,17.94
2023-02-15T03:50:51.403Z,18.02
2023-02-15T03:51:51.380Z,17.96
2023-02-15T03:52:51.342Z,17.95
2023-02-15T03:53:51.316Z,17.96
2023-02-15T03:54:51.270Z,18.02
2023-02-15T03:55:51.248Z,17.98
2023-02-15T06:04:48.241Z,18.04
2023-02-15T06:05:48.244Z,18.02
2023-02-15T06:06:48.214Z,17.99
2023-02-15T06:07:48.183Z,18.02
2023-02-15T06:08:48.175Z,18.00
2023-02-15T06:09:48.142Z,18.02
2023-02-15T06:10:48.130Z,18.02
2023-02-15T06:11:48.108Z,18.00
2023-02-15T06:12:48.074Z,18.04
2023-02-15T06:13:48.050Z,18.04
2023-02-15T06:14:48.030Z,18.02
2023-02-15T06:15:48.032Z,18.00
2023-02-15T06:16:47.986Z,18.02
2023-02-15T06:17:47.963Z,18.06
2023-02-15T06:18:47.948Z,18.06
2023-02-15T06:19:47.918Z,18.00
2023-02-15T06:20:47.916Z,18.04
2023-02-15T06:21:47.889Z,18.00
2023-02-15T06:22:47.872Z,18.00
2023-02-15T06:23:47.860Z,18.02
2023-02-15T06:24:47.840Z,18.06
2023-02-15T06:25:47.822Z,18.04
2023-02-15T06:26:47.816Z,18.06
2023-02-15T06:27:47.771Z,18.08
2023-02-15T06:28:47.749Z,18.05
2023-02-15T06:29:47.727Z,18.05
2023-02-15T06:30:47.776Z,18.07
2023-02-15T06:31:47.806Z,18.07
2023-02-15T06:32:47.676Z,18.08
2023-02-15T06:33:47.649Z,18.11
2023-02-15T06:34:48.864Z,18.08
2023-02-15T06:35:47.599Z,18.12
2023-02-15T06:36:47.585Z,18.04
2023-02-15T06:37:47.562Z,18.08
2023-02-15T06:38:47.551Z,18.11
2023-02-15T06:39:47.525Z,18.10
2023-02-15T06:40:47.511Z,18.06
2023-02-15T06:41:47.487Z,18.08
2023-02-15T06:42:47.481Z,18.05
2023-02-15T06:43:47.438Z,18.04
2023-02-15T06:44:47.445Z,18.05
2023-02-15T06:45:47.400Z,18.06
2023-02-15T06:46:47.453Z,18.06
2023-02-15T06:47:47.351Z,18.08
2023-02-15T06:48:47.358Z,18.00
2023-02-15T06:49:47.318Z,18.10
2023-02-15T06:50:47.292Z,18.02
2023-02-15T06:51:47.283Z,18.05
2023-02-15T06:52:47.257Z,18.08
2023-02-15T06:53:47.231Z,18.08
2023-02-15T06:54:47.228Z,18.06
2023-02-15T06:55:47.193Z,18.07
2023-02-15T06:56:47.179Z,18.02
2023-02-15T06:57:48.883Z,18.05
2023-02-15T06:58:47.407Z,18.02
2023-02-15T06:59:47.369Z,18.00
2023-02-15T07:00:47.351Z,18.10
2023-02-15T07:01:47.351Z,18.05
2023-02-15T07:02:47.292Z,18.08
2023-02-15T07:03:47.275Z,18.07
2023-02-15T07:04:47.281Z,18.10
2023-02-15T07:05:47.234Z,18.10
2023-02-15T07:06:47.206Z,18.08
2023-02-15T07:07:47.188Z,18.14
2023-02-15T07:08:47.156Z,18.10
2023-02-15T07:09:47.138Z,18.11
2023-02-15T07:10:47.130Z,18.11
2023-02-15T07:11:47.110Z,18.06
2023-02-15T07:12:47.080Z,18.08
2023-02-15T07:13:47.046Z,18.05
2023-02-15T07:14:47.025Z,18.08
2023-02-15T07:15:47.028Z,18.06
2023-02-15T07:16:47.002Z,18.14
2023-02-15T07:17:46.947Z,18.08
2023-02-15T07:18:46.931Z,18.08
2023-02-15T07:19:46.907Z,18.10
2023-02-15T07:20:46.883Z,18.12
2023-02-15T07:21:46.867Z,18.11
2023-02-15T07:22:46.834Z,18.17
2023-02-15T07:23:46.816Z,18.11
2023-02-15T07:24:46.806Z,18.08
2023-02-15T07:25:46.775Z,18.11
2023-02-15T07:26:46.765Z,18.06
2023-02-15T07:27:46.762Z,18.04
2023-02-15T07:28:46.723Z,18.11
2023-02-15T07:29:46.705Z,18.10
2023-02-15T07:30:46.739Z,18.05
2023-02-15T07:31:46.671Z,18.11
2023-02-15T07:32:46.685Z,18.06
2023-02-15T07:33:46.629Z,18.10
2023-02-15T07:34:46.620Z,18.11
2023-02-15T07:35:46.596Z,18.10
2023-02-15T07:36:46.568Z,18.08
2023-02-15T07:37:46.572Z,18.11
2023-02-15T07:38:46.518Z,18.11
2023-02-15T07:39:46.492Z,18.11
2023-02-15T07:40:46.478Z,18.11
2023-02-15T07:41:46.439Z,18.12
2023-02-15T07:42:46.439Z,18.11
2023-02-15T07:43:47.406Z,18.14
2023-02-15T07:44:46.413Z,18.08
2023-02-15T07:45:46.359Z,18.05
2023-02-15T07:46:46.481Z,18.11
2023-02-15T07:47:46.326Z,18.06
2023-02-15T07:48:46.314Z,18.11
2023-02-15T07:49:46.287Z,18.07
2023-02-15T07:50:46.263Z,18.08
2023-02-15T07:51:46.228Z,18.10
2023-02-15T07:52:46.219Z,18.05
2023-02-15T07:53:46.204Z,18.05
2023-02-15T07:54:46.185Z,18.01
2023-02-15T07:55:46.173Z,17.98
2023-02-15T07:56:46.132Z,17.95
2023-02-15T07:57:46.134Z,17.91
2023-02-15T07:58:46.090Z,17.87
2023-02-15T07:59:46.069Z,17.88
2023-02-15T08:00:46.036Z,17.78
2023-02-15T08:01:46.040Z,17.81
2023-02-15T08:02:46.011Z,17.69
2023-02-15T08:03:46.024Z,17.74
2023-02-15T08:04:45.952Z,17.67
2023-02-15T08:05:45.961Z,17.64
2023-02-15T08:06:45.897Z,17.59
2023-02-15T08:07:45.883Z,17.61
2023-02-15T08:08:45.849Z,17.55
2023-02-15T08:09:45.818Z,17.52
2023-02-15T08:10:45.803Z,17.54
2023-02-15T08:11:45.780Z,17.45
2023-02-15T08:12:45.749Z,17.47
2023-02-15T08:13:45.717Z,17.42
2023-02-15T08:14:45.690Z,17.38
2023-02-15T08:15:45.650Z,17.32
2023-02-15T08:16:45.717Z,17.35
2023-02-15T08:17:45.595Z,17.29
2023-02-15T08:18:45.565Z,17.26
2023-02-15T08:19:45.527Z,17.19
2023-02-15T08:20:45.500Z,17.11
2023-02-15T08:21:45.485Z,17.13
2023-02-15T08:22:45.439Z,17.08
2023-02-15T08:23:45.437Z,17.12
2023-02-15T08:24:45.373Z,17.10
2023-02-15T08:25:45.347Z,17.07
2023-02-15T08:26:45.321Z,17.04
2023-02-15T08:27:45.270Z,17.03
2023-02-15T08:28:45.243Z,17.00
2023-02-15T08:29:45.208Z,16.98
2023-02-15T08:30:45.175Z,16.97
2023-02-15T08:31:45.212Z,17.03
2023-02-15T08:32:45.110Z,16.98
2023-02-15T08:33:45.082Z,16.92
2023-02-15T08:34:45.210Z,17.01
2023-02-15T08:35:45.018Z,17.00
2023-02-15T08:36:44.973Z,16.97
2023-02-15T08:37:44.937Z,16.97
2023-02-15T08:38:44.911Z,16.97
2023-02-15T08:39:44.877Z,16.98
2023-02-15T08:40:44.837Z,16.92
2023-02-15T08:41:44.806Z,16.97
2023-02-15T08:42:44.782Z,16.97
2023-02-15T08:43:44.734Z,16.97
2023-02-15T08:44:44.693Z,17.00
2023-02-15T08:45:44.698Z,16.98
2023-02-15T08:46:44.622Z,17.03
2023-02-15T08:47:44.580Z,17.00
2023-02-15T08:48:44.592Z,17.06
2023-02-15T08:49:44.500Z,17.03
2023-02-15T08:50:44.506Z,17.08
2023-02-15T08:51:44.423Z,17.05
2023-02-15T08:52:44.386Z,17.11
2023-02-15T08:53:44.351Z,17.03
2023-02-15T08:54:44.317Z,17.08
2023-02-15T08:55:44.286Z,17.03
2023-02-15T08:56:44.254Z,17.07
2023-02-15T08:57:44.197Z,17.07
2023-02-15T08:58:44.165Z,17.05
2023-02-15T08:59:44.122Z,17.07
2023-02-15T09:00:45.231Z,16.99
2023-02-15T09:01:44.049Z,17.04
2023-02-15T09:02:44.005Z,17.02
2023-02-15T09:03:43.962Z,17.00
2023-02-15T09:04:44.002Z,17.00
2023-02-15T09:05:43.873Z,16.98
2023-02-15T09:06:43.916Z,16.96
2023-02-15T09:07:43.803Z,17.00
2023-02-15T09:08:43.762Z,16.96
2023-02-15T09:09:43.730Z,16.89
2023-02-15T09:10:43.687Z,16.94
2023-02-15T09:11:43.634Z,16.89
2023-02-15T09:12:43.596Z,16.94
2023-02-15T09:13:43.561Z,16.88
2023-02-15T09:14:43.546Z,16.90
2023-02-15T09:15:43.492Z,16.88
2023-02-15T09:16:43.512Z,16.87
2023-02-15T09:17:43.407Z,16.90
2023-02-15T09:18:43.377Z,16.87
2023-02-15T09:19:43.336Z,16.85
2023-02-15T09:20:43.298Z,16.79
2023-02-15T09:21:43.248Z,16.84
2023-02-15T09:22:43.223Z,16.75
2023-02-15T09:23:43.168Z,16.78
2023-02-15T09:24:43.132Z,16.78
2023-02-15T09:25:43.073Z,16.74
2023-02-15T09:26:43.041Z,16.74
2023-02-15T09:27:42.989Z,16.74
2023-02-15T09:28:42.950Z,16.71
2023-02-15T09:29:42.906Z,16.85
2023-02-15T09:30:42.954Z,16.82
2023-02-15T09:31:42.899Z,16.80
2023-02-15T09:32:42.781Z,16.74
2023-02-15T09:33:42.736Z,16.71
2023-02-15T09:34:42.701Z,16.77
2023-02-15T09:35:42.644Z,16.69
2023-02-15T09:36:42.615Z,16.70
2023-02-15T09:37:42.585Z,16.62
2023-02-15T09:38:42.515Z,16.64
2023-02-15T09:39:42.471Z,16.63
2023-02-15T09:40:42.421Z,16.65
2023-02-15T09:41:42.372Z,16.67
2023-02-15T09:42:42.340Z,16.56
2023-02-15T09:43:42.287Z,16.58
2023-02-15T09:44:42.257Z,16.61
2023-02-15T09:45:42.382Z,16.60
2023-02-15T09:46:42.163Z,16.66
2023-02-15T09:47:42.129Z,16.53
2023-02-15T09:48:42.054Z,16.58
2023-02-15T09:49:42.067Z,16.61
2023-02-15T09:50:41.964Z,16.57
2023-02-15T09:51:41.915Z,16.51
2023-02-15T09:52:41.875Z,16.55
2023-02-15T09:53:41.855Z,16.54
2023-02-15T09:54:41.791Z,16.54
2023-02-15T09:55:41.755Z,16.54
2023-02-15T09:56:41.700Z,16.49
2023-02-15T09:57:41.655Z,16.53
2023-02-15T09:58:41.616Z,16.49
2023-02-15T09:59:41.565Z,16.50
2023-02-15T10:00:41.530Z,16.46
2023-02-15T10:01:41.507Z,16.51
2023-02-15T10:02:41.427Z,16.48
2023-02-15T10:03:41.384Z,16.45
2023-02-15T10:04:41.407Z,16.50
2023-02-15T10:05:41.296Z,16.52
2023-02-15T10:06:41.253Z,16.47
2023-02-15T11:03:38.416Z,16.34
2023-02-15T11:04:38.372Z,16.29
2023-02-15T11:05:38.294Z,16.31
2023-02-15T11:06:38.219Z,16.28
2023-02-15T11:07:38.158Z,16.29
2023-02-15T11:08:38.112Z,16.25
2023-02-15T11:09:38.106Z,16.31
2023-02-15T11:10:37.991Z,16.26
2023-02-15T11:11:37.951Z,16.23
2023-02-15T11:12:37.881Z,16.22
2023-02-15T11:13:37.832Z,16.30
2023-02-15T11:14:37.788Z,16.27
2023-02-15T11:15:37.767Z,16.25
2023-02-15T11:16:37.662Z,16.25
2023-02-15T11:17:37.615Z,16.25
2023-02-15T11:18:37.555Z,16.24
2023-02-15T11:19:37.526Z,16.22
2023-02-15T11:20:37.457Z,16.25
2023-02-15T11:21:37.397Z,16.21
2023-02-15T11:22:37.350Z,16.25
2023-02-15T11:23:37.294Z,16.22
2023-02-15T11:24:37.230Z,16.19
2023-02-15T11:25:37.188Z,16.25
2023-02-15T11:26:37.140Z,16.26
2023-02-15T11:27:37.107Z,16.15
2023-02-15T11:28:37.021Z,16.18
2023-02-15T11:29:36.958Z,16.21
2023-02-15T11:30:36.964Z,16.17
2023-02-15T11:31:37.032Z,16.20
2023-02-15T11:32:36.823Z,16.21
2023-02-15T11:33:36.736Z,16.17
2023-02-15T11:34:36.694Z,16.18
2023-02-15T11:35:36.632Z,16.14
2023-02-15T11:36:36.589Z,16.18
2023-02-15T11:37:36.530Z,16.18
2023-02-15T11:38:36.488Z,16.17
2023-02-15T11:39:38.229Z,16.12
2023-02-15T11:40:36.350Z,16.12
2023-02-15T11:41:36.317Z,16.11
2023-02-15T11:42:36.249Z,16.12
2023-02-15T11:43:36.189Z,16.15
2023-02-15T11:44:36.124Z,16.11
2023-02-15T11:45:36.063Z,16.14
2023-02-15T11:46:36.143Z,16.12
2023-02-15T11:47:35.956Z,16.09
2023-02-15T11:48:35.887Z,16.12
2023-02-15T11:49:35.830Z,16.12
2023-02-15T11:50:35.756Z,16.11
2023-02-15T11:51:35.697Z,16.09
2023-02-15T11:52:35.652Z,16.12
2023-02-15T11:53:35.576Z,16.05
2023-02-15T11:54:35.513Z,16.13
2023-02-15T11:55:35.461Z,16.11
2023-02-15T11:56:35.399Z,16.10
2023-02-15T11:57:35.364Z,16.05
2023-02-15T11:58:35.291Z,16.07
2023-02-15T11:59:35.229Z,16.08
2023-02-15T12:00:35.163Z,16.04
2023-02-15T12:01:35.128Z,16.13
2023-02-15T12:02:35.316Z,16.02
2023-02-15T12:03:35.244Z,16.11
2023-02-15T12:04:34.935Z,16.06
2023-02-15T12:05:34.866Z,16.07
2023-02-15T12:06:34.809Z,16.07
2023-02-15T12:07:34.756Z,16.02
2023-02-15T12:08:34.693Z,16.02
2023-02-15T12:09:34.711Z,16.02
2023-02-15T12:10:34.712Z,16.06
2023-02-15T12:11:34.725Z,16.01
2023-02-15T12:12:34.471Z,16.06
2023-02-15T12:13:34.411Z,16.03
2023-02-15T12:14:34.351Z,16.01
2023-02-15T12:15:34.301Z,15.98
2023-02-15T12:16:34.261Z,15.98
2023-02-15T12:17:34.198Z,16.01
2023-02-15T12:18:34.154Z,16.00
2023-02-15T12:19:34.086Z,16.04
2023-02-15T12:20:34.027Z,15.98
2023-02-15T12:21:33.991Z,15.97
2023-02-15T12:22:33.929Z,15.99
2023-02-15T12:23:33.862Z,16.00
2023-02-15T12:24:33.808Z,16.00
2023-02-15T12:25:33.760Z,16.05
2023-02-15T12:26:33.702Z,15.97
2023-02-15T12:27:33.665Z,15.99
2023-02-15T12:28:33.601Z,16.02
2023-02-15T12:29:33.539Z,15.99
2023-02-15T12:30:33.521Z,15.99
2023-02-15T12:31:33.493Z,16.00
2023-02-15T12:32:33.385Z,15.95
2023-02-15T12:33:33.339Z,15.96
2023-02-15T12:34:33.303Z,16.02
2023-02-15T12:35:33.208Z,16.02
2023-02-15T12:36:33.160Z,16.02
2023-02-15T12:37:33.139Z,15.94
2023-02-15T12:38:33.033Z,15.96
2023-02-15T12:39:32.980Z,15.97
2023-02-15T12:40:32.951Z,15.94
2023-02-15T12:41:32.856Z,16.02
2023-02-15T12:42:32.797Z,15.97
2023-02-15T12:43:32.747Z,16.00
2023-02-15T12:44:32.710Z,15.94
2023-02-15T12:45:32.621Z,15.96
2023-02-15T12:46:37.880Z,15.97
2023-02-15T12:47:33.497Z,15.94
2023-02-15T12:48:32.440Z,15.96
2023-02-15T12:49:32.375Z,15.94
2023-02-15T12:50:35.470Z,16.00
2023-02-15T12:51:32.269Z,16.02
2023-02-15T12:52:32.191Z,16.00
2023-02-15T12:53:32.144Z,16.00
2023-02-15T12:54:32.098Z,15.97
2023-02-15T12:55:32.008Z,16.03
2023-02-15T12:56:31.956Z,16.02
2023-02-15T12:57:31.901Z,16.00
2023-02-15T12:58:31.843Z,15.97
2023-02-15T12:59:31.781Z,16.00
2023-02-15T13:00:31.705Z,15.97
2023-02-15T13:01:31.646Z,15.99
2023-02-15T13:02:31.604Z,15.96
2023-02-15T13:03:31.580Z,15.99
2023-02-15T13:04:31.492Z,15.99
2023-02-15T13:05:31.410Z,15.97
2023-02-15T13:06:31.344Z,15.92
2023-02-15T13:07:31.281Z,15.99
2023-02-15T13:08:31.245Z,16.02
2023-02-15T14:04:27.921Z,16.27
2023-02-15T14:05:27.853Z,16.21
2023-02-15T14:06:27.743Z,16.27
2023-02-15T14:07:27.674Z,16.28
2023-02-15T14:08:27.616Z,16.33
2023-02-15T14:09:27.573Z,16.35
2023-02-15T14:10:27.501Z,16.33
2023-02-15T14:11:27.441Z,16.23
2023-02-15T14:12:27.373Z,16.29
2023-02-15T14:13:27.307Z,16.29
2023-02-15T14:14:27.270Z,16.27
2023-02-15T14:15:27.194Z,16.32
2023-02-15T14:16:27.187Z,16.33
2023-02-15T14:17:27.068Z,16.30
2023-02-15T14:18:27.001Z,16.36
2023-02-15T14:19:26.944Z,16.37
2023-02-15T14:20:26.892Z,16.34
2023-02-15T14:21:26.815Z,16.42
2023-02-15T14:22:26.759Z,16.37
2023-02-15T14:23:26.700Z,16.48
2023-02-15T14:24:26.637Z,16.47
2023-02-15T14:25:26.587Z,16.30
2023-02-15T14:26:26.532Z,16.31
2023-02-15T14:27:26.460Z,16.47
2023-02-15T14:28:26.400Z,16.42
2023-02-15T14:29:26.344Z,16.48
2023-02-15T14:30:26.454Z,16.31
2023-02-15T14:31:26.319Z,16.49
2023-02-15T14:32:26.406Z,16.49
2023-02-15T14:33:26.102Z,16.51
2023-02-15T14:34:26.037Z,16.49
2023-02-15T14:35:25.974Z,16.40
2023-02-15T14:36:25.910Z,16.48
2023-02-15T14:37:25.854Z,16.43
2023-02-15T14:38:25.801Z,16.55
2023-02-15T14:39:25.750Z,16.44
2023-02-15T14:40:25.700Z,16.44
2023-02-15T14:41:25.637Z,16.43
2023-02-15T14:42:25.574Z,16.70
2023-02-15T14:43:25.520Z,16.63
2023-02-15T14:44:25.465Z,16.60
2023-02-15T14:45:25.406Z,16.53
2023-02-15T14:46:25.417Z,16.49
2023-02-15T14:47:25.299Z,16.49
2023-02-15T14:48:25.246Z,16.53
2023-02-15T14:49:25.202Z,16.56
2023-02-15T14:50:25.144Z,16.52
2023-02-15T14:51:25.104Z,16.50
2023-02-15T14:52:25.038Z,16.56
2023-02-15T14:53:25.008Z,16.59
2023-02-15T14:54:24.945Z,16.64
2023-02-15T14:55:24.877Z,16.62
2023-02-15T14:56:24.842Z,16.53
2023-02-15T14:57:24.794Z,16.54
2023-02-15T14:58:24.720Z,16.51
2023-02-15T14:59:24.694Z,16.44
2023-02-15T15:00:24.644Z,16.41
2023-02-15T15:01:24.610Z,16.45
2023-02-15T15:02:24.520Z,16.42
2023-02-15T15:03:24.528Z,16.43
2023-02-15T15:04:24.410Z,16.49
2023-02-15T15:05:24.347Z,16.43
2023-02-15T15:06:24.286Z,16.48
2023-02-15T15:07:24.232Z,16.53
2023-02-15T15:08:24.181Z,16.51
2023-02-15T15:09:24.128Z,16.57
2023-02-15T15:10:24.070Z,16.55
2023-02-15T15:11:37.328Z,16.52
2023-02-15T15:12:24.966Z,16.45
2023-02-15T15:13:23.913Z,16.49
2023-02-15T15:14:23.901Z,16.50
2023-02-15T15:15:23.816Z,16.55
2023-02-15T15:16:23.893Z,16.50
2023-02-15T15:17:23.705Z,16.50
2023-02-15T15:18:23.651Z,16.46
2023-02-15T15:19:23.613Z,16.53
2023-02-15T15:20:23.555Z,16.55
2023-02-15T15:21:23.516Z,16.49
2023-02-15T15:22:23.455Z,16.58
2023-02-15T15:23:23.392Z,16.55
2023-02-15T15:24:23.349Z,16.56
2023-02-15T15:25:23.289Z,16.58
2023-02-15T15:26:23.249Z,16.59
2023-02-15T15:27:23.217Z,16.55
2023-02-15T15:28:23.151Z,16.55
2023-02-15T15:29:23.112Z,16.64
2023-02-15T15:30:23.159Z,16.51
2023-02-15T15:31:23.147Z,16.54
2023-02-15T15:32:22.950Z,16.51
2023-02-15T15:33:22.888Z,16.55
2023-02-15T15:34:22.861Z,16.54
2023-02-15T15:35:22.787Z,16.51
2023-02-15T15:36:22.758Z,16.55
2023-02-15T15:37:22.699Z,16.57
2023-02-15T15:38:22.662Z,16.54
2023-02-15T15:39:22.597Z,16.58
2023-02-15T15:40:22.556Z,16.55
2023-02-15T15:41:22.512Z,16.58
2023-02-15T15:42:22.470Z,16.58
2023-02-15T15:43:22.431Z,16.55
2023-02-15T15:44:22.376Z,16.57
2023-02-15T15:45:22.322Z,16.63
2023-02-15T15:46:22.304Z,16.54
2023-02-15T15:47:22.221Z,16.55
2023-02-15T15:48:22.197Z,16.54
2023-02-15T15:49:22.130Z,16.54
2023-02-15T15:50:22.087Z,16.55
2023-02-15T15:51:22.022Z,16.60
2023-02-15T15:52:21.991Z,16.57
2023-02-15T15:53:21.923Z,16.61
2023-02-15T15:54:21.873Z,16.63
2023-02-15T15:55:21.830Z,16.62
2023-02-15T15:56:21.783Z,16.56
2023-02-15T15:57:21.735Z,16.58
2023-02-15T15:58:21.693Z,16.62
2023-02-15T15:59:21.631Z,16.64
2023-02-15T16:00:21.589Z,16.65
2023-02-15T16:01:21.561Z,16.64
2023-02-15T16:02:21.562Z,16.58
2023-02-15T16:03:21.457Z,16.65
2023-02-15T16:04:21.412Z,16.58
2023-02-15T16:05:21.368Z,16.65
2023-02-15T16:06:21.327Z,16.61
2023-02-15T16:07:21.280Z,16.59
2023-02-15T16:08:21.236Z,16.65
2023-02-15T19:01:14.621Z,17.12
2023-02-15T19:02:14.634Z,17.09
2023-02-15T19:03:14.518Z,17.08
2023-02-15T19:04:14.464Z,17.12
2023-02-15T19:05:14.446Z,17.11
2023-02-15T19:06:14.399Z,17.14
2023-02-15T19:07:14.376Z,17.13
2023-02-15T19:08:14.342Z,17.14
2023-02-15T19:09:14.324Z,17.13
2023-02-15T19:10:14.293Z,17.16
2023-02-15T19:11:14.258Z,17.13
2023-02-15T19:12:14.230Z,17.13
2023-02-15T19:13:14.206Z,17.16
2023-02-15T19:14:14.177Z,17.15
2023-02-15T19:15:14.151Z,17.15
2023-02-15T19:16:14.141Z,17.13
2023-02-15T19:17:14.094Z,17.18
2023-02-15T19:18:14.052Z,17.15
2023-02-15T19:19:14.020Z,17.18
2023-02-15T19:20:13.984Z,17.16
2023-02-15T19:21:13.952Z,17.16
2023-02-15T19:22:13.915Z,17.16
2023-02-15T19:23:13.872Z,17.19
2023-02-15T19:24:13.839Z,17.18
2023-02-15T19:25:13.824Z,17.16
2023-02-15T19:26:13.762Z,17.24
2023-02-15T19:27:13.720Z,17.16
2023-02-15T19:28:13.692Z,17.16
2023-02-15T19:29:13.672Z,17.19
2023-02-15T19:30:13.696Z,17.19
2023-02-15T19:31:13.720Z,17.19
2023-02-15T19:32:13.619Z,17.16
2023-02-15T19:33:13.514Z,17.18
2023-02-15T19:34:13.477Z,17.20
2023-02-15T19:35:13.451Z,17.18
2023-02-15T19:36:13.416Z,17.26
2023-02-15T19:37:13.378Z,17.18
2023-02-15T19:38:13.342Z,17.25
2023-02-15T19:39:13.319Z,17.19
2023-02-15T19:40:13.288Z,17.18
2023-02-15T19:41:13.260Z,17.23
2023-02-15T19:42:13.203Z,17.17
2023-02-15T19:43:13.169Z,17.23
2023-02-15T19:44:13.134Z,17.22
2023-02-15T19:45:13.116Z,17.22
2023-02-15T19:46:13.124Z,17.22
2023-02-15T19:47:13.046Z,17.19
2023-02-15T19:48:12.991Z,17.16
2023-02-15T19:49:12.957Z,17.16
2023-02-15T19:50:12.926Z,17.20
2023-02-15T19:51:12.892Z,17.20
2023-02-15T19:52:12.857Z,17.17
2023-02-15T19:53:12.827Z,17.15
2023-02-15T19:54:12.796Z,17.20
2023-02-15T19:55:12.761Z,17.17
2023-02-15T19:56:12.735Z,17.20
2023-02-15T19:57:12.693Z,17.19
2023-02-15T19:58:12.688Z,17.18
2023-02-15T19:59:12.648Z,17.21
2023-02-15T20:00:21.376Z,17.21
2023-02-15T20:01:13.597Z,17.25
2023-02-15T20:02:12.536Z,17.21
2023-02-15T20:03:12.505Z,17.20
2023-02-15T20:04:14.011Z,17.17
2023-02-15T20:05:12.446Z,17.23
2023-02-15T20:06:12.415Z,17.18
2023-02-15T20:07:12.382Z,17.23
2023-02-15T20:08:12.368Z,17.26
2023-02-15T20:09:12.333Z,17.23
2023-02-15T20:10:12.296Z,17.21
2023-02-15T20:11:12.277Z,17.23
2023-02-15T20:12:12.241Z,17.23
2023-02-15T20:13:12.206Z,17.20
2023-02-15T20:14:12.179Z,17.24
2023-02-15T20:15:12.142Z,17.23
2023-02-15T20:16:12.197Z,17.18
2023-02-15T20:17:12.077Z,17.21
2023-02-15T20:18:12.048Z,17.23
2023-02-15T20:19:12.029Z,17.26
2023-02-15T20:20:11.988Z,17.21
2023-02-15T20:21:11.964Z,17.29
2023-02-15T20:22:11.927Z,17.20
2023-02-15T20:23:11.894Z,17.26
2023-02-15T20:24:11.861Z,17.23
2023-02-15T20:25:11.832Z,17.21
2023-02-15T20:26:11.799Z,17.20
2023-02-15T20:27:11.764Z,17.24
2023-02-15T20:28:11.728Z,17.26
2023-02-15T20:29:11.702Z,17.26
2023-02-15T20:30:11.675Z,17.27
2023-02-15T20:31:11.771Z,17.20
2023-02-15T20:32:11.723Z,17.26
2023-02-15T20:33:11.566Z,17.23
2023-02-15T20:34:11.533Z,17.23
2023-02-15T20:35:11.509Z,17.30
2023-02-15T20:36:11.478Z,17.23
2023-02-15T20:37:11.443Z,17.23
2023-02-15T20:38:11.414Z,17.23
2023-02-15T20:39:11.385Z,17.27
2023-02-15T20:40:11.366Z,17.24
2023-02-15T20:41:11.378Z,17.30
2023-02-15T20:42:11.300Z,17.27
2023-02-15T20:43:11.268Z,17.23
2023-02-15T20:44:11.235Z,17.21
2023-02-15T23:42:06.299Z,17.30
2023-02-15T23:43:06.275Z,17.24
2023-02-15T23:44:06.274Z,17.30
2023-02-15T23:45:06.240Z,17.22
2023-02-15T23:46:06.312Z,17.27
2023-02-15T23:47:06.200Z,17.30
2023-02-15T23:48:06.191Z,17.27
2023-02-15T23:49:06.149Z,17.29
2023-02-15T23:50:06.138Z,17.29
2023-02-15T23:51:06.376Z,17.27
2023-02-15T23:52:06.090Z,17.28
2023-02-15T23:53:06.072Z,17.28
2023-02-15T23:54:06.050Z,17.27
2023-02-15T23:55:06.034Z,17.29
2023-02-15T23:56:06.004Z,17.25
2023-02-15T23:57:05.991Z,17.28
2023-02-15T23:58:05.981Z,17.24
2023-02-15T23:59:05.965Z,17.27
